sensor_id;sensor_type;location;lat;lon;timestamp;pressure;altitude;pressure_sealevel;temperature;humidity
65718;BME280;52445;52.466;-1.016;2023-03-05T00:00:26;101153.78;;;3.76;62.34
65718;BME280;52445;52.466;-1.016;2023-03-05T00:02:52;101154.56;;;3.75;62.26
65718;BME280;52445;52.466;-1.016;2023-03-05T00:05:19;101154.56;;;3.75;62.58
65718;BME280;52445;52.466;-1.016;2023-03-05T00:07:46;101149.44;;;3.75;62.73
65718;BME280;52445;52.466;-1.016;2023-03-05T00:10:14;101145.13;;;3.74;62.71
65718;BME280;52445;52.466;-1.016;2023-03-05T00:12:41;101143.38;;;3.73;62.88
65718;BME280;52445;52.466;-1.016;2023-03-05T00:15:08;101142.56;;;3.74;62.68
65718;BME280;52445;52.466;-1.016;2023-03-05T00:17:34;101138.25;;;3.73;62.41
65718;BME280;52445;52.466;-1.016;2023-03-05T00:20:01;101130.50;;;3.71;62.69
65718;BME280;52445;52.466;-1.016;2023-03-05T00:22:28;101122.63;;;3.67;62.40
65718;BME280;52445;52.466;-1.016;2023-03-05T00:24:54;101121.69;;;3.65;63.36
65718;BME280;52445;52.466;-1.016;2023-03-05T00:27:21;101119.00;;;3.62;62.80
65718;BME280;52445;52.466;-1.016;2023-03-05T00:29:47;101121.63;;;3.63;62.61
65718;BME280;52445;52.466;-1.016;2023-03-05T00:32:14;101124.13;;;3.62;63.11
65718;BME280;52445;52.466;-1.016;2023-03-05T00:34:41;101127.50;;;3.60;62.72
65718;BME280;52445;52.466;-1.016;2023-03-05T00:37:07;101119.00;;;3.62;63.23
65718;BME280;52445;52.466;-1.016;2023-03-05T00:39:34;101119.00;;;3.62;63.00
65718;BME280;52445;52.466;-1.016;2023-03-05T00:42:01;101119.00;;;3.62;63.30
65718;BME280;52445;52.466;-1.016;2023-03-05T00:44:27;101108.75;;;3.62;62.90
65718;BME280;52445;52.466;-1.016;2023-03-05T00:46:54;101110.47;;;3.63;62.70
65718;BME280;52445;52.466;-1.016;2023-03-05T00:49:20;101110.47;;;3.63;63.04
65718;BME280;52445;52.466;-1.016;2023-03-05T00:51:47;101115.69;;;3.64;63.14
65718;BME280;52445;52.466;-1.016;2023-03-05T00:54:14;101105.34;;;3.63;63.48
65718;BME280;52445;52.466;-1.016;2023-03-05T00:56:40;101108.75;;;3.62;63.75
65718;BME280;52445;52.466;-1.016;2023-03-05T00:59:07;101107.00;;;3.60;63.28
65718;BME280;52445;52.466;-1.016;2023-03-05T01:01:33;101099.25;;;3.59;63.69
65718;BME280;52445;52.466;-1.016;2023-03-05T01:04:00;101101.72;;;3.57;63.18
65718;BME280;52445;52.466;-1.016;2023-03-05T01:06:27;101091.47;;;3.57;63.32
65718;BME280;52445;52.466;-1.016;2023-03-05T01:08:54;101093.91;;;3.54;64.09
65718;BME280;52445;52.466;-1.016;2023-03-05T01:11:22;101094.59;;;3.50;64.25
65718;BME280;52445;52.466;-1.016;2023-03-05T01:13:48;101090.34;;;3.51;64.22
65718;BME280;52445;52.466;-1.016;2023-03-05T01:16:15;101085.16;;;3.49;64.33
65718;BME280;52445;52.466;-1.016;2023-03-05T01:18:41;101075.72;;;3.48;63.59
65718;BME280;52445;52.466;-1.016;2023-03-05T01:21:08;101075.59;;;3.45;63.82
65718;BME280;52445;52.466;-1.016;2023-03-05T01:23:35;101072.97;;;3.43;64.08
65718;BME280;52445;52.466;-1.016;2023-03-05T01:26:03;101071.94;;;3.40;63.92
65718;BME280;52445;52.466;-1.016;2023-03-05T01:28:30;101060.03;;;3.40;63.74
65718;BME280;52445;52.466;-1.016;2023-03-05T01:30:57;101064.19;;;3.38;64.10
65718;BME280;52445;52.466;-1.016;2023-03-05T01:33:24;101058.22;;;3.38;64.77
65718;BME280;52445;52.466;-1.016;2023-03-05T01:35:51;101047.81;;;3.34;63.89
65718;BME280;52445;52.466;-1.016;2023-03-05T01:38:17;101057.31;;;3.37;64.08
65718;BME280;52445;52.466;-1.016;2023-03-05T01:40:44;101050.47;;;3.36;64.77
65718;BME280;52445;52.466;-1.016;2023-03-05T01:51:39;101048.66;;;3.33;63.78
65718;BME280;52445;52.466;-1.016;2023-03-05T01:54:09;101040.97;;;3.33;64.34
65718;BME280;52445;52.466;-1.016;2023-03-05T01:56:38;101035.78;;;3.32;64.62
65718;BME280;52445;52.466;-1.016;2023-03-05T01:59:05;101040.00;;;3.31;64.80
65718;BME280;52445;52.466;-1.016;2023-03-05T02:01:37;101034.06;;;3.32;64.14
65718;BME280;52445;52.466;-1.016;2023-03-05T02:04:07;101026.38;;;3.32;64.27
65718;BME280;52445;52.466;-1.016;2023-03-05T02:06:34;101029.75;;;3.31;64.76
65718;BME280;52445;52.466;-1.016;2023-03-05T02:09:00;101021.16;;;3.29;64.91
65718;BME280;52445;52.466;-1.016;2023-03-05T02:11:28;101015.06;;;3.27;64.33
65718;BME280;52445;52.466;-1.016;2023-03-05T02:13:55;101015.16;;;3.29;64.56
65718;BME280;52445;52.466;-1.016;2023-03-05T02:16:21;101012.53;;;3.27;64.35
65718;BME280;52445;52.466;-1.016;2023-03-05T02:18:48;101008.22;;;3.26;64.56
65718;BME280;52445;52.466;-1.016;2023-03-05T02:21:25;101000.53;;;3.26;64.72
65718;BME280;52445;52.466;-1.016;2023-03-05T02:23:53;101000.47;;;3.25;64.95
65718;BME280;52445;52.466;-1.016;2023-03-05T02:26:20;101003.84;;;3.24;64.03
65718;BME280;52445;52.466;-1.016;2023-03-05T02:28:51;100996.22;;;3.25;64.27
65718;BME280;52445;52.466;-1.016;2023-03-05T02:31:22;100993.59;;;3.24;64.18
65718;BME280;52445;52.466;-1.016;2023-03-05T02:33:49;100994.47;;;3.24;63.85
65718;BME280;52445;52.466;-1.016;2023-03-05T02:36:17;100992.72;;;3.23;64.47
65718;BME280;52445;52.466;-1.016;2023-03-05T02:38:44;100997.84;;;3.23;64.29
65718;BME280;52445;52.466;-1.016;2023-03-05T02:41:11;100987.31;;;3.17;64.18
65718;BME280;52445;52.466;-1.016;2023-03-05T02:43:38;100984.81;;;3.18;64.17
65718;BME280;52445;52.466;-1.016;2023-03-05T02:46:05;100983.97;;;3.18;64.93
65718;BME280;52445;52.466;-1.016;2023-03-05T02:48:32;100982.34;;;3.20;64.35
65718;BME280;52445;52.466;-1.016;2023-03-05T02:51:00;100982.34;;;3.20;64.93
65718;BME280;52445;52.466;-1.016;2023-03-05T02:53:28;100978.09;;;3.20;64.71
65718;BME280;52445;52.466;-1.016;2023-03-05T02:55:54;100976.44;;;3.21;64.42
65718;BME280;52445;52.466;-1.016;2023-03-05T02:58:21;100977.34;;;3.23;64.65
65718;BME280;52445;52.466;-1.016;2023-03-05T03:00:47;100965.38;;;3.22;65.00
65718;BME280;52445;52.466;-1.016;2023-03-05T03:03:14;100968.75;;;3.21;64.80
65718;BME280;52445;52.466;-1.016;2023-03-05T03:05:41;100961.84;;;3.20;64.90
65718;BME280;52445;52.466;-1.016;2023-03-05T03:08:08;100955.00;;;3.19;64.22
65718;BME280;52445;52.466;-1.016;2023-03-05T03:10:36;100949.88;;;3.19;64.32
65718;BME280;52445;52.466;-1.016;2023-03-05T03:13:02;100943.88;;;3.18;64.80
65718;BME280;52445;52.466;-1.016;2023-03-05T03:15:29;100945.50;;;3.16;64.01
65718;BME280;52445;52.466;-1.016;2023-03-05T03:17:55;100937.81;;;3.16;64.99
65718;BME280;52445;52.466;-1.016;2023-03-05T03:20:22;100934.25;;;3.13;65.04
65718;BME280;52445;52.466;-1.016;2023-03-05T03:22:49;100934.25;;;3.13;64.75
65718;BME280;52445;52.466;-1.016;2023-03-05T03:25:19;100935.06;;;3.12;64.79
65718;BME280;52445;52.466;-1.016;2023-03-05T03:27:46;100934.13;;;3.10;64.37
65718;BME280;52445;52.466;-1.016;2023-03-05T03:30:14;100936.69;;;3.10;64.82
65718;BME280;52445;52.466;-1.016;2023-03-05T03:32:41;100932.38;;;3.08;65.31
65718;BME280;52445;52.466;-1.016;2023-03-05T03:35:09;100924.63;;;3.07;65.05
65718;BME280;52445;52.466;-1.016;2023-03-05T03:37:36;100930.50;;;3.04;65.24
65718;BME280;52445;52.466;-1.016;2023-03-05T03:40:04;100918.22;;;2.97;64.28
65718;BME280;52445;52.466;-1.016;2023-03-05T03:42:31;100914.91;;;2.98;64.04
65718;BME280;52445;52.466;-1.016;2023-03-05T03:44:58;100913.25;;;3.00;64.84
65718;BME280;52445;52.466;-1.016;2023-03-05T03:47:25;100911.50;;;2.99;64.23
65718;BME280;52445;52.466;-1.016;2023-03-05T03:49:53;100908.94;;;2.99;64.59
65718;BME280;52445;52.466;-1.016;2023-03-05T03:52:20;100903.84;;;2.99;63.96
65718;BME280;52445;52.466;-1.016;2023-03-05T03:54:49;100893.59;;;2.99;64.96
65718;BME280;52445;52.466;-1.016;2023-03-05T03:57:17;100891.94;;;3.00;65.07
65718;BME280;52445;52.466;-1.016;2023-03-05T03:59:44;100889.28;;;2.98;64.31
65718;BME280;52445;52.466;-1.016;2023-03-05T04:02:11;100878.16;;;2.98;64.07
65718;BME280;52445;52.466;-1.016;2023-03-05T04:04:38;100877.28;;;2.97;64.86
65718;BME280;52445;52.466;-1.016;2023-03-05T04:07:05;100874.66;;;2.95;65.14
65718;BME280;52445;52.466;-1.016;2023-03-05T04:09:31;100870.44;;;2.96;63.89
65718;BME280;52445;52.466;-1.016;2023-03-05T04:11:58;100866.94;;;2.94;65.07
65718;BME280;52445;52.466;-1.016;2023-03-05T04:14:24;100866.13;;;2.95;64.72
65718;BME280;52445;52.466;-1.016;2023-03-05T04:16:52;100852.44;;;2.94;64.72
65718;BME280;52445;52.466;-1.016;2023-03-05T04:19:19;100849.94;;;2.96;64.16
65718;BME280;52445;52.466;-1.016;2023-03-05T04:21:45;100843.09;;;2.95;64.14
65718;BME280;52445;52.466;-1.016;2023-03-05T04:24:12;100843.09;;;2.95;64.22
65718;BME280;52445;52.466;-1.016;2023-03-05T04:26:38;100842.16;;;2.93;64.02
65718;BME280;52445;52.466;-1.016;2023-03-05T04:29:05;100841.22;;;2.91;63.77
65718;BME280;52445;52.466;-1.016;2023-03-05T04:31:32;100844.59;;;2.90;64.90
65718;BME280;52445;52.466;-1.016;2023-03-05T04:33:58;100842.69;;;2.86;65.01
65718;BME280;52445;52.466;-1.016;2023-03-05T04:36:25;100845.22;;;2.84;64.15
65718;BME280;52445;52.466;-1.016;2023-03-05T04:38:52;100841.72;;;2.82;64.51
65718;BME280;52445;52.466;-1.016;2023-03-05T04:41:18;100839.91;;;2.79;64.64
65718;BME280;52445;52.466;-1.016;2023-03-05T04:43:45;100838.94;;;2.77;64.36
65718;BME280;52445;52.466;-1.016;2023-03-05T04:46:11;100835.47;;;2.75;64.09
65718;BME280;52445;52.466;-1.016;2023-03-05T04:48:38;100840.59;;;2.75;64.30
65718;BME280;52445;52.466;-1.016;2023-03-05T04:51:05;100837.06;;;2.73;63.97
65718;BME280;52445;52.466;-1.016;2023-03-05T04:53:31;100832.72;;;2.70;64.62
65718;BME280;52445;52.466;-1.016;2023-03-05T04:55:58;100824.97;;;2.69;63.80
65718;BME280;52445;52.466;-1.016;2023-03-05T04:58:27;100817.97;;;2.65;64.07
65718;BME280;52445;52.466;-1.016;2023-03-05T05:00:53;100821.34;;;2.64;64.06
65718;BME280;52445;52.466;-1.016;2023-03-05T05:03:20;100817.84;;;2.62;63.86
65718;BME280;52445;52.466;-1.016;2023-03-05T05:05:53;100828.06;;;2.62;64.07
65718;BME280;52445;52.466;-1.016;2023-03-05T05:08:21;100826.31;;;2.61;65.37
65718;BME280;52445;52.466;-1.016;2023-03-05T05:11:05;100826.31;;;2.61;64.01
65718;BME280;52445;52.466;-1.016;2023-03-05T05:13:33;100822.09;;;2.61;65.15
65718;BME280;52445;52.466;-1.016;2023-03-05T05:16:00;100824.72;;;2.63;63.95
65718;BME280;52445;52.466;-1.016;2023-03-05T05:18:27;100814.50;;;2.63;65.20
65718;BME280;52445;52.466;-1.016;2023-03-05T05:20:54;100815.34;;;2.63;64.94
65718;BME280;52445;52.466;-1.016;2023-03-05T05:23:20;100804.28;;;2.64;65.01
65718;BME280;52445;52.466;-1.016;2023-03-05T05:25:55;100800.00;;;2.63;65.20
65718;BME280;52445;52.466;-1.016;2023-03-05T05:28:22;100797.50;;;2.65;65.23
65718;BME280;52445;52.466;-1.016;2023-03-05T05:30:48;100790.66;;;2.64;64.87
65718;BME280;52445;52.466;-1.016;2023-03-05T05:33:15;100787.28;;;2.65;65.09
65718;BME280;52445;52.466;-1.016;2023-03-05T05:35:42;100775.31;;;2.64;65.12
65718;BME280;52445;52.466;-1.016;2023-03-05T05:38:08;100777.03;;;2.65;64.51
65718;BME280;52445;52.466;-1.016;2023-03-05T05:40:35;100775.38;;;2.65;64.51
65718;BME280;52445;52.466;-1.016;2023-03-05T05:43:02;100779.66;;;2.66;63.92
65718;BME280;52445;52.466;-1.016;2023-03-05T05:45:28;100768.56;;;2.66;63.97
65718;BME280;52445;52.466;-1.016;2023-03-05T05:47:55;100761.75;;;2.66;64.83
65718;BME280;52445;52.466;-1.016;2023-03-05T05:50:22;100756.59;;;2.65;64.06
65718;BME280;52445;52.466;-1.016;2023-03-05T05:52:50;100755.69;;;2.64;65.00
65718;BME280;52445;52.466;-1.016;2023-03-05T05:55:17;100757.47;;;2.65;64.33
65718;BME280;52445;52.466;-1.016;2023-03-05T05:57:43;100751.47;;;2.65;65.30
65718;BME280;52445;52.466;-1.016;2023-03-05T06:00:14;100751.47;;;2.65;63.76
65718;BME280;52445;52.466;-1.016;2023-03-05T06:02:42;100747.25;;;2.65;64.53
65718;BME280;52445;52.466;-1.016;2023-03-05T06:05:12;100757.53;;;2.67;64.69
65718;BME280;52445;52.466;-1.016;2023-03-05T06:07:38;100751.47;;;2.65;63.82
65718;BME280;52445;52.466;-1.016;2023-03-05T06:10:06;100757.47;;;2.65;64.82
65718;BME280;52445;52.466;-1.016;2023-03-05T06:12:33;100747.25;;;2.65;64.79
65718;BME280;52445;52.466;-1.016;2023-03-05T06:14:59;100753.19;;;2.66;64.01
65718;BME280;52445;52.466;-1.016;2023-03-05T06:17:27;100738.69;;;2.65;65.21
65718;BME280;52445;52.466;-1.016;2023-03-05T06:19:56;100742.13;;;2.65;64.20
65718;BME280;52445;52.466;-1.016;2023-03-05T06:22:24;100735.22;;;2.64;65.31
65718;BME280;52445;52.466;-1.016;2023-03-05T06:24:50;100733.56;;;2.65;64.32
65718;BME280;52445;52.466;-1.016;2023-03-05T06:27:17;100734.38;;;2.64;64.36
65718;BME280;52445;52.466;-1.016;2023-03-05T06:29:43;100742.97;;;2.66;65.04
65718;BME280;52445;52.466;-1.016;2023-03-05T06:32:10;100742.97;;;2.66;64.04
65718;BME280;52445;52.466;-1.016;2023-03-05T06:34:36;100736.13;;;2.65;65.31
65718;BME280;52445;52.466;-1.016;2023-03-05T06:37:03;100737.75;;;2.63;64.54
65718;BME280;52445;52.466;-1.016;2023-03-05T06:39:30;100737.75;;;2.63;64.45
65718;BME280;52445;52.466;-1.016;2023-03-05T06:41:57;100730.03;;;2.61;64.36
65718;BME280;52445;52.466;-1.016;2023-03-05T06:44:23;100738.47;;;2.60;64.18
65718;BME280;52445;52.466;-1.016;2023-03-05T06:46:51;100729.13;;;2.61;64.68
65718;BME280;52445;52.466;-1.016;2023-03-05T06:49:17;100727.41;;;2.60;64.67
65718;BME280;52445;52.466;-1.016;2023-03-05T06:51:44;100727.41;;;2.60;65.03
65718;BME280;52445;52.466;-1.016;2023-03-05T06:54:13;100728.31;;;2.62;64.06
65718;BME280;52445;52.466;-1.016;2023-03-05T06:56:43;100738.47;;;2.60;64.33
65718;BME280;52445;52.466;-1.016;2023-03-05T06:59:12;100744.47;;;2.61;65.17
65718;BME280;52445;52.466;-1.016;2023-03-05T07:01:39;100727.31;;;2.58;65.19
65718;BME280;52445;52.466;-1.016;2023-03-05T07:04:06;100727.41;;;2.60;64.49
65718;BME280;52445;52.466;-1.016;2023-03-05T07:06:34;100735.84;;;2.59;64.55
65718;BME280;52445;52.466;-1.016;2023-03-05T07:09:03;100730.03;;;2.61;64.70
65718;BME280;52445;52.466;-1.016;2023-03-05T07:11:31;100731.75;;;2.62;63.95
65718;BME280;52445;52.466;-1.016;2023-03-05T07:13:58;100728.44;;;2.65;64.62
65718;BME280;52445;52.466;-1.016;2023-03-05T07:16:27;100728.50;;;2.66;65.31
65718;BME280;52445;52.466;-1.016;2023-03-05T07:18:55;100726.03;;;2.68;65.22
65718;BME280;52445;52.466;-1.016;2023-03-05T07:21:26;100714.97;;;2.69;65.18
65718;BME280;52445;52.466;-1.016;2023-03-05T07:23:55;100726.16;;;2.71;64.51
65718;BME280;52445;52.466;-1.016;2023-03-05T07:26:22;100719.38;;;2.73;63.91
65718;BME280;52445;52.466;-1.016;2023-03-05T07:28:49;100717.78;;;2.75;64.27
65718;BME280;52445;52.466;-1.016;2023-03-05T07:31:18;100715.28;;;2.77;63.89
65718;BME280;52445;52.466;-1.016;2023-03-05T07:33:47;100717.84;;;2.77;65.19
65718;BME280;52445;52.466;-1.016;2023-03-05T07:36:14;100718.63;;;2.76;64.23
65718;BME280;52445;52.466;-1.016;2023-03-05T07:38:41;100712.78;;;2.78;64.10
65718;BME280;52445;52.466;-1.016;2023-03-05T07:41:10;100711.97;;;2.79;65.38
65718;BME280;52445;52.466;-1.016;2023-03-05T07:43:38;100712.09;;;2.82;64.60
65718;BME280;52445;52.466;-1.016;2023-03-05T07:46:06;100707.91;;;2.85;64.39
65718;BME280;52445;52.466;-1.016;2023-03-05T07:48:34;100711.41;;;2.87;65.21
65718;BME280;52445;52.466;-1.016;2023-03-05T07:51:02;100705.59;;;2.91;64.49
65718;BME280;52445;52.466;-1.016;2023-03-05T07:53:29;100696.28;;;2.93;64.47
65718;BME280;52445;52.466;-1.016;2023-03-05T07:55:55;100697.22;;;2.95;64.59
65718;BME280;52445;52.466;-1.016;2023-03-05T07:58:22;100694.03;;;3.01;65.12
65718;BME280;52445;52.466;-1.016;2023-03-05T08:00:49;100691.66;;;3.05;65.29
65718;BME280;52445;52.466;-1.016;2023-03-05T08:03:15;100686.75;;;3.12;65.27
65718;BME280;52445;52.466;-1.016;2023-03-05T08:05:42;100683.50;;;3.16;65.23
65718;BME280;52445;52.466;-1.016;2023-03-05T08:08:09;100687.97;;;3.21;65.19
65718;BME280;52445;52.466;-1.016;2023-03-05T08:10:37;100682.97;;;3.25;64.29
65718;BME280;52445;52.466;-1.016;2023-03-05T08:13:04;100674.53;;;3.27;64.26
65718;BME280;52445;52.466;-1.016;2023-03-05T08:15:30;100679.78;;;3.30;64.57
65718;BME280;52445;52.466;-1.016;2023-03-05T08:17:58;100679.06;;;3.34;65.08
65718;BME280;52445;52.466;-1.016;2023-03-05T08:20:25;100677.53;;;3.40;64.09
65718;BME280;52445;52.466;-1.016;2023-03-05T08:22:51;100672.59;;;3.44;64.89
65718;BME280;52445;52.466;-1.016;2023-03-05T08:25:18;100671.88;;;3.49;64.12
65718;BME280;52445;52.466;-1.016;2023-03-05T08:27:46;100675.44;;;3.52;64.14
65718;BME280;52445;52.466;-1.016;2023-03-05T08:30:16;100664.50;;;3.56;63.92
65718;BME280;52445;52.466;-1.016;2023-03-05T08:32:43;100644.19;;;3.63;64.81
65718;BME280;52445;52.466;-1.016;2023-03-05T08:35:10;100653.78;;;3.68;64.27
65718;BME280;52445;52.466;-1.016;2023-03-05T08:37:37;100645.41;;;3.72;64.72
65718;BME280;52445;52.466;-1.016;2023-03-05T08:40:04;100648.97;;;3.76;64.52
65718;BME280;52445;52.466;-1.016;2023-03-05T08:42:31;100643.13;;;3.80;64.98
65718;BME280;52445;52.466;-1.016;2023-03-05T08:44:58;100632.97;;;3.83;64.54
65718;BME280;52445;52.466;-1.016;2023-03-05T08:47:24;100636.66;;;3.92;64.23
65718;BME280;52445;52.466;-1.016;2023-03-05T08:49:52;100640.25;;;3.97;64.20
65718;BME280;52445;52.466;-1.016;2023-03-05T08:52:21;100626.72;;;4.01;64.12
65718;BME280;52445;52.466;-1.016;2023-03-05T08:54:48;100630.28;;;4.06;64.47
65718;BME280;52445;52.466;-1.016;2023-03-05T08:57:14;100630.41;;;4.09;64.38
65718;BME280;52445;52.466;-1.016;2023-03-05T08:59:41;100628.78;;;4.11;64.19
65718;BME280;52445;52.466;-1.016;2023-03-05T09:02:09;100630.63;;;4.16;64.06
65718;BME280;52445;52.466;-1.016;2023-03-05T09:04:37;100623.81;;;4.18;64.38
65718;BME280;52445;52.466;-1.016;2023-03-05T09:07:04;100624.81;;;4.21;63.94
65718;BME280;52445;52.466;-1.016;2023-03-05T09:09:31;100626.66;;;4.26;63.93
65718;BME280;52445;52.466;-1.016;2023-03-05T09:12:00;100621.59;;;4.27;63.95
65718;BME280;52445;52.466;-1.016;2023-03-05T09:14:27;100615.69;;;4.30;63.94
65718;BME280;52445;52.466;-1.016;2023-03-05T09:16:55;100618.28;;;4.31;63.78
65718;BME280;52445;52.466;-1.016;2023-03-05T09:19:22;100607.19;;;4.32;63.62
65718;BME280;52445;52.466;-1.016;2023-03-05T09:21:49;100609.91;;;4.37;63.83
65718;BME280;52445;52.466;-1.016;2023-03-05T09:24:16;100597.25;;;4.42;63.44
65718;BME280;52445;52.466;-1.016;2023-03-05T09:26:42;100596.41;;;4.43;63.68
65718;BME280;52445;52.466;-1.016;2023-03-05T09:29:09;100591.34;;;4.44;63.32
65718;BME280;52445;52.466;-1.016;2023-03-05T09:31:36;100588.91;;;4.49;63.83
65718;BME280;52445;52.466;-1.016;2023-03-05T09:34:04;100599.34;;;4.55;63.18
65718;BME280;52445;52.466;-1.016;2023-03-05T09:36:31;100603.66;;;4.56;63.38
65718;BME280;52445;52.466;-1.016;2023-03-05T09:38:58;100584.91;;;4.57;62.97
65718;BME280;52445;52.466;-1.016;2023-03-05T09:50:03;100570.97;;;4.78;63.52
65718;BME280;52445;52.466;-1.016;2023-03-05T09:52:37;100566.91;;;4.86;63.47
65718;BME280;52445;52.466;-1.016;2023-03-05T09:55:12;100564.63;;;4.96;63.49
65718;BME280;52445;52.466;-1.016;2023-03-05T09:57:47;100558.06;;;5.07;62.63
65718;BME280;52445;52.466;-1.016;2023-03-05T10:02:58;100555.28;;;5.30;62.75
65718;BME280;52445;52.466;-1.016;2023-03-05T10:05:35;100546.91;;;5.37;62.85
65718;BME280;52445;52.466;-1.016;2023-03-05T10:08:09;100536.72;;;5.40;61.96
65718;BME280;52445;52.466;-1.016;2023-03-05T10:10:43;100548.72;;;5.42;62.25
65718;BME280;52445;52.466;-1.016;2023-03-05T10:13:23;100540.97;;;5.40;61.18
65718;BME280;52445;52.466;-1.016;2023-03-05T10:18:53;100534.16;;;5.40;61.54
65718;BME280;52445;52.466;-1.016;2023-03-05T10:21:32;100530.00;;;5.46;61.90
65718;BME280;52445;52.466;-1.016;2023-03-05T10:29:47;100526.63;;;5.82;61.47
65718;BME280;52445;52.466;-1.016;2023-03-05T10:35:31;100514.53;;;6.13;62.23
65718;BME280;52445;52.466;-1.016;2023-03-05T10:46:16;100501.03;;;6.64;61.08
65718;BME280;52445;52.466;-1.016;2023-03-05T10:48:52;100501.91;;;6.64;60.68
65718;BME280;52445;52.466;-1.016;2023-03-05T10:54:03;100493.22;;;6.59;59.94
65718;BME280;52445;52.466;-1.016;2023-03-05T10:56:37;100500.81;;;6.53;59.19
65718;BME280;52445;52.466;-1.016;2023-03-05T10:59:03;100492.06;;;6.45;60.20
65718;BME280;52445;52.466;-1.016;2023-03-05T11:01:30;100484.28;;;6.41;59.37
65718;BME280;52445;52.466;-1.016;2023-03-05T11:06:36;100484.13;;;6.35;59.25
65718;BME280;52445;52.466;-1.016;2023-03-05T11:14:43;100472.81;;;6.27;59.27
65718;BME280;52445;52.466;-1.016;2023-03-05T11:39:15;100437.22;;;6.07;59.92
65718;BME280;52445;52.466;-1.016;2023-03-05T11:41:48;100438.91;;;6.07;59.82
65718;BME280;52445;52.466;-1.016;2023-03-05T11:44:26;100434.63;;;6.06;58.94
65718;BME280;52445;52.466;-1.016;2023-03-05T11:47:16;100426.06;;;6.05;59.08
65718;BME280;52445;52.466;-1.016;2023-03-05T11:49:46;100414.13;;;6.09;59.98
65718;BME280;52445;52.466;-1.016;2023-03-05T11:52:20;100404.72;;;6.09;59.70
65718;BME280;52445;52.466;-1.016;2023-03-05T11:55:06;100399.56;;;6.09;59.31
65718;BME280;52445;52.466;-1.016;2023-03-05T11:57:46;100390.16;;;6.11;60.22
65718;BME280;52445;52.466;-1.016;2023-03-05T12:00:15;100394.53;;;6.15;59.39
65718;BME280;52445;52.466;-1.016;2023-03-05T12:02:44;100389.41;;;6.15;58.60
65718;BME280;52445;52.466;-1.016;2023-03-05T12:05:14;100382.53;;;6.14;59.67
65718;BME280;52445;52.466;-1.016;2023-03-05T12:07:45;100377.44;;;6.17;60.10
65718;BME280;52445;52.466;-1.016;2023-03-05T12:10:15;100381.81;;;6.22;59.61
65718;BME280;52445;52.466;-1.016;2023-03-05T12:12:54;100376.69;;;6.22;59.59
65718;BME280;52445;52.466;-1.016;2023-03-05T12:29:54;100349.16;;;6.17;59.58
65718;BME280;52445;52.466;-1.016;2023-03-05T12:38:17;100332.94;;;6.22;60.56
65718;BME280;52445;52.466;-1.016;2023-03-05T12:40:52;100324.34;;;6.21;58.84
65718;BME280;52445;52.466;-1.016;2023-03-05T12:43:29;100332.00;;;6.18;59.74
65718;BME280;52445;52.466;-1.016;2023-03-05T12:46:24;100313.94;;;6.13;60.38
65718;BME280;52445;52.466;-1.016;2023-03-05T12:48:51;100306.25;;;6.15;59.17
65718;BME280;52445;52.466;-1.016;2023-03-05T12:51:37;100306.16;;;6.10;59.87
65718;BME280;52445;52.466;-1.016;2023-03-05T12:54:23;100305.28;;;6.11;59.91
65718;BME280;52445;52.466;-1.016;2023-03-05T12:56:54;100299.34;;;6.14;60.01
65718;BME280;52445;52.466;-1.016;2023-03-05T12:59:29;100296.81;;;6.15;58.86
65718;BME280;52445;52.466;-1.016;2023-03-05T13:02:01;100289.03;;;6.12;60.58
65718;BME280;52445;52.466;-1.016;2023-03-05T13:04:31;100289.03;;;6.12;60.44
65718;BME280;52445;52.466;-1.016;2023-03-05T13:07:13;100284.72;;;6.11;59.09
65718;BME280;52445;52.466;-1.016;2023-03-05T13:09:39;100279.66;;;6.14;59.17
65718;BME280;52445;52.466;-1.016;2023-03-05T13:12:12;100271.16;;;6.19;60.28
65718;BME280;52445;52.466;-1.016;2023-03-05T13:14:42;100264.28;;;6.17;60.60
65718;BME280;52445;52.466;-1.016;2023-03-05T13:17:31;100255.72;;;6.19;60.21
65718;BME280;52445;52.466;-1.016;2023-03-05T13:20:00;100252.47;;;6.29;60.63
65718;BME280;52445;52.466;-1.016;2023-03-05T13:22:29;100238.91;;;6.36;60.09
65718;BME280;52445;52.466;-1.016;2023-03-05T13:25:15;100245.84;;;6.43;60.67
65718;BME280;52445;52.466;-1.016;2023-03-05T13:27:42;100239.19;;;6.55;59.76
65718;BME280;52445;52.466;-1.016;2023-03-05T13:30:27;100239.31;;;6.61;59.68
65718;BME280;52445;52.466;-1.016;2023-03-05T13:32:58;100237.66;;;6.66;59.46
65718;BME280;52445;52.466;-1.016;2023-03-05T13:35:29;100231.59;;;6.63;59.19
65718;BME280;52445;52.466;-1.016;2023-03-05T13:37:56;100226.38;;;6.58;59.86
65718;BME280;52445;52.466;-1.016;2023-03-05T13:40:28;100220.34;;;6.56;59.02
65718;BME280;52445;52.466;-1.016;2023-03-05T13:43:09;100216.88;;;6.54;58.61
65718;BME280;52445;52.466;-1.016;2023-03-05T13:45:37;100210.88;;;6.55;59.35
65718;BME280;52445;52.466;-1.016;2023-03-05T13:48:06;100210.91;;;6.56;58.74
65718;BME280;52445;52.466;-1.016;2023-03-05T13:50:36;100210.91;;;6.56;59.93
65718;BME280;52445;52.466;-1.016;2023-03-05T13:53:31;100197.16;;;6.54;60.11
65718;BME280;52445;52.466;-1.016;2023-03-05T13:56:02;100192.94;;;6.60;60.27
65718;BME280;52445;52.466;-1.016;2023-03-05T14:01:41;100186.19;;;6.66;60.02
65718;BME280;52445;52.466;-1.016;2023-03-05T14:06:56;100183.47;;;7.17;58.05
65718;BME280;52445;52.466;-1.016;2023-03-05T14:12:05;100177.25;;;7.00;59.83
65718;BME280;52445;52.466;-1.016;2023-03-05T14:14:36;100178.94;;;6.99;59.53
65718;BME280;52445;52.466;-1.016;2023-03-05T14:22:50;100176.25;;;6.91;60.00
65718;BME280;52445;52.466;-1.016;2023-03-05T14:28:15;100173.41;;;6.73;59.06
65718;BME280;52445;52.466;-1.016;2023-03-05T14:30:49;100170.72;;;6.63;59.01
65718;BME280;52445;52.466;-1.016;2023-03-05T14:33:28;100159.41;;;6.53;58.36
65718;BME280;52445;52.466;-1.016;2023-03-05T14:35:57;100161.03;;;6.48;59.23
65718;BME280;52445;52.466;-1.016;2023-03-05T14:38:27;100159.16;;;6.39;58.26
65718;BME280;52445;52.466;-1.016;2023-03-05T14:40:55;100163.19;;;6.22;58.87
65718;BME280;52445;52.466;-1.016;2023-03-05T14:43:22;100152.88;;;6.22;58.82
65718;BME280;52445;52.466;-1.016;2023-03-05T14:45:48;100149.38;;;6.16;59.06
65718;BME280;52445;52.466;-1.016;2023-03-05T14:48:16;100141.53;;;6.09;57.58